Lodoga, California
Current Conditions -  °F | °C
As of 7:56 AM on Monday 24 Nov 2014 (Local Time) from KUKI Reporting Station
Few Clouds Few Clouds  
Wind Chill: 39°   Ceiling: Unl
Heat Index: 39°   Visibility: 10mi
Dew Point: 37°   Wind: 3mph
Humidity: 93%   Direction: 320°NW
Pressure: 30.43"   Gusts: NA
Location:  39.3318°N, 122.533°W
Report Text: KUKI 241556Z AUTO 32003KT 10SM FEW090 04/03 A3043 RMK AO2 SLP304 T00390028
Loading
Personal Weather Stations






























Interactive Weather Map New forecast layout! Learn more

10-Day Weather Forecast

Advertisements
Track Severe Weather on mobile